Time;durP1;ratioP1;P1;durP2;ratioP2;P2;SDS_P1;SDS_P2;PMS_P1;PMS_P2;Temp;Humidity;BMP_temperature;BMP_pressure;BME280_temperature;BME280_humidity;BME280_pressure;Samples;Min_cycle;Max_cycle;Signal;HPM_P1;HPM_P2
2022/03/07 00:01:02;;;;;;;0.20;0.20;;;3.10;64.30;;;;;;4945367;28;20039;-70
2022/03/07 00:03:28;;;;;;;0.10;0.10;;;3.00;64.70;;;;;;4947753;29;20489;-70
2022/03/07 00:05:53;;;;;;;0.10;0.10;;;3.10;65.30;;;;;;4948523;28;20058;-70
2022/03/07 00:08:19;;;;;;;0.15;0.15;;;3.00;65.60;;;;;;4947543;29;20031;-70
2022/03/07 00:10:45;;;;;;;0.17;0.17;;;2.90;66.00;;;;;;4948957;29;20046;-70
2022/03/07 00:13:10;;;;;;;0.10;0.10;;;2.90;66.60;;;;;;4949129;28;20141;-69
2022/03/07 00:15:36;;;;;;;0.10;0.10;;;2.90;67.10;;;;;;4947538;28;20338;-70
2022/03/07 00:18:02;;;;;;;1.23;1.23;;;2.80;67.70;;;;;;4944346;28;20074;-69
2022/03/07 00:20:27;;;;;;;0.20;0.20;;;2.80;68.30;;;;;;4948672;28;20023;-69
2022/03/07 00:22:53;;;;;;;0.20;0.20;;;2.90;68.60;;;;;;4946761;28;20118;-69
2022/03/07 00:25:18;;;;;;;0.20;0.20;;;2.80;69.00;;;;;;4947437;29;20404;-70
2022/03/07 00:27:44;;;;;;;0.10;0.10;;;2.80;69.40;;;;;;4947387;29;20111;-70
2022/03/07 00:30:10;;;;;;;0.10;0.10;;;2.70;69.40;;;;;;4947717;29;20023;-69
2022/03/07 00:32:36;;;;;;;0.22;0.22;;;2.70;70.10;;;;;;4945240;28;20102;-69
2022/03/07 00:35:02;;;;;;;0.10;0.10;;;2.70;70.60;;;;;;4946729;28;20532;-70
2022/03/07 00:37:28;;;;;;;3.17;2.58;;;2.70;70.50;;;;;;4946834;28;20027;-70
2022/03/07 00:39:53;;;;;;;0.98;0.95;;;2.60;70.80;;;;;;4948989;28;20400;-69
2022/03/07 00:42:19;;;;;;;0.15;0.15;;;2.60;70.90;;;;;;4949138;28;20031;-68
2022/03/07 00:44:45;;;;;;;0.10;0.10;;;2.60;71.20;;;;;;4949561;29;21450;-70
2022/03/07 00:47:10;;;;;;;0.20;0.20;;;2.50;71.20;;;;;;4963405;28;20025;-69
2022/03/07 00:49:36;;;;;;;0.10;0.10;;;2.60;71.60;;;;;;4969169;28;20027;-69
2022/03/07 00:52:02;;;;;;;0.10;0.10;;;2.60;71.80;;;;;;4950396;28;20023;-69
2022/03/07 00:54:27;;;;;;;0.10;0.10;;;2.60;71.80;;;;;;4950789;28;20492;-68
2022/03/07 00:56:53;;;;;;;1.48;1.48;;;2.60;72.10;;;;;;4950362;28;20046;-69
2022/03/07 00:59:19;;;;;;;0.10;0.10;;;2.50;72.20;;;;;;4949439;28;20042;-68
2022/03/07 01:01:44;;;;;;;0.30;0.30;;;2.50;72.80;;;;;;4930511;28;20035;-70
2022/03/07 01:04:10;;;;;;;0.10;0.10;;;2.70;73.00;;;;;;4933386;28;20392;-69
2022/03/07 01:06:35;;;;;;;0.20;0.20;;;2.50;72.80;;;;;;4950005;28;20480;-69
2022/03/07 01:09:02;;;;;;;1.05;0.95;;;2.50;73.50;;;;;;4950059;28;20027;-70
2022/03/07 01:11:27;;;;;;;0.10;0.10;;;2.60;73.50;;;;;;5023737;28;20466;-68
2022/03/07 01:13:53;;;;;;;1.75;1.65;;;2.50;73.90;;;;;;5051624;28;20033;-69
2022/03/07 01:16:18;;;;;;;0.10;0.10;;;2.40;73.70;;;;;;5051234;28;20033;-68
2022/03/07 01:18:44;;;;;;;0.10;0.10;;;2.40;74.40;;;;;;4961899;28;20104;-69
2022/03/07 01:21:11;;;;;;;0.20;0.20;;;2.40;74.40;;;;;;4965593;23;20059;-72
2022/03/07 01:23:37;;;;;;;0.95;0.95;;;2.30;74.70;;;;;;4971096;28;20035;-70
2022/03/07 01:26:02;;;;;;;0.20;0.20;;;2.50;75.40;;;;;;4971591;28;20135;-70
2022/03/07 01:28:28;;;;;;;0.10;0.10;;;2.40;75.70;;;;;;4987748;28;20503;-70
2022/03/07 01:30:54;;;;;;;0.10;0.10;;;2.40;75.30;;;;;;4976201;28;20019;-72
2022/03/07 01:33:19;;;;;;;5.07;1.50;;;2.40;75.30;;;;;;4973452;28;20523;-69
2022/03/07 01:35:45;;;;;;;0.28;0.28;;;2.40;75.40;;;;;;4972281;28;20449;-70
2022/03/07 01:38:11;;;;;;;1.02;0.98;;;2.40;76.00;;;;;;4973070;28;20081;-70
2022/03/07 01:40:37;;;;;;;0.10;0.10;;;2.40;76.20;;;;;;4971550;28;20106;-69
2022/03/07 01:43:02;;;;;;;0.25;0.25;;;2.50;76.70;;;;;;4972420;28;20015;-71
2022/03/07 01:45:28;;;;;;;0.20;0.20;;;2.40;77.10;;;;;;4970545;28;20035;-70
2022/03/07 01:47:54;;;;;;;0.10;0.10;;;2.30;76.70;;;;;;4966724;28;20817;-70
2022/03/07 01:50:21;;;;;;;0.10;0.10;;;2.30;77.80;;;;;;4972577;28;20105;-70
2022/03/07 01:52:50;;;;;;;0.20;0.20;;;2.30;77.60;;;;;;4972335;28;20074;-71
2022/03/07 01:55:16;;;;;;;0.13;0.13;;;2.20;77.70;;;;;;4972227;28;20029;-70
2022/03/07 01:57:44;;;;;;;0.10;0.10;;;2.10;78.10;;;;;;4971459;28;20027;-72
2022/03/07 02:00:18;;;;;;;0.10;0.10;;;2.10;78.10;;;;;;4972618;28;20468;-70
2022/03/07 02:02:44;;;;;;;0.10;0.10;;;2.10;78.10;;;;;;4963329;28;20027;-70
2022/03/07 02:05:10;;;;;;;0.10;0.10;;;2.10;78.10;;;;;;4970654;28;20061;-70
2022/03/07 02:07:37;;;;;;;1.77;1.65;;;2.10;77.70;;;;;;4971881;28;20472;-69
2022/03/07 02:10:05;;;;;;;0.10;0.10;;;2.00;77.80;;;;;;4972289;28;20019;-71
2022/03/07 02:12:31;;;;;;;0.20;0.20;;;2.00;77.10;;;;;;4971857;28;20074;-70
2022/03/07 02:14:56;;;;;;;0.10;0.10;;;1.90;77.00;;;;;;4970591;28;20496;-70
2022/03/07 02:17:22;;;;;;;2.13;2.03;;;1.90;77.50;;;;;;4972063;28;20150;-71
2022/03/07 02:19:48;;;;;;;0.50;0.50;;;1.80;77.60;;;;;;4971776;28;20027;-70
2022/03/07 02:22:16;;;;;;;0.10;0.10;;;1.70;78.10;;;;;;4971862;28;20093;-71
2022/03/07 02:24:42;;;;;;;0.10;0.10;;;1.80;78.40;;;;;;4970447;28;20042;-70
2022/03/07 02:27:10;;;;;;;0.10;0.10;;;1.60;78.00;;;;;;4972100;28;20019;-69
2022/03/07 02:29:37;;;;;;;0.10;0.10;;;1.70;78.40;;;;;;4971799;28;20023;-71
2022/03/07 02:32:07;;;;;;;0.22;0.22;;;1.60;78.90;;;;;;4970864;28;20097;-69
2022/03/07 02:34:32;;;;;;;0.10;0.10;;;1.60;78.80;;;;;;4971709;28;20042;-71
2022/03/07 02:36:58;;;;;;;0.10;0.10;;;1.50;79.10;;;;;;4971086;28;20031;-70
2022/03/07 02:39:24;;;;;;;0.10;0.10;;;1.40;79.60;;;;;;4971759;28;20030;-71
2022/03/07 02:41:49;;;;;;;0.20;0.20;;;1.40;80.20;;;;;;4970433;28;20118;-68
2022/03/07 02:44:16;;;;;;;0.13;0.13;;;1.40;80.60;;;;;;4971548;28;20031;-70
2022/03/07 02:46:42;;;;;;;0.10;0.10;;;1.40;81.50;;;;;;4970851;28;20034;-70
2022/03/07 02:49:08;;;;;;;0.73;0.68;;;1.30;81.80;;;;;;4970476;28;20035;-70
2022/03/07 02:51:34;;;;;;;0.45;0.45;;;1.30;82.50;;;;;;4971348;28;20472;-70
2022/03/07 02:54:00;;;;;;;0.10;0.10;;;1.70;83.00;;;;;;4971288;28;20053;-69
2022/03/07 02:56:26;;;;;;;0.20;0.20;;;1.30;83.20;;;;;;4970811;28;20027;-71
2022/03/07 02:58:52;;;;;;;0.10;0.10;;;1.30;84.00;;;;;;4963960;28;20027;-70
2022/03/07 03:01:17;;;;;;;0.10;0.10;;;1.30;85.20;;;;;;4952454;29;20034;-72
2022/03/07 03:03:43;;;;;;;0.10;0.10;;;1.20;85.70;;;;;;4956310;28;20031;-70
2022/03/07 03:06:09;;;;;;;0.10;0.10;;;1.20;84.70;;;;;;4969960;28;20031;-70
2022/03/07 03:08:35;;;;;;;0.10;0.10;;;1.10;86.30;;;;;;4970163;28;20019;-70
2022/03/07 03:11:01;;;;;;;0.10;0.10;;;1.20;86.60;;;;;;4971164;28;20101;-68
2022/03/07 03:13:27;;;;;;;0.10;0.10;;;1.20;86.40;;;;;;4970305;28;20033;-69
2022/03/07 03:15:54;;;;;;;0.20;0.20;;;1.10;86.40;;;;;;4971026;28;20102;-70
2022/03/07 03:18:21;;;;;;;0.10;0.10;;;1.10;87.30;;;;;;4971495;28;20023;-69
2022/03/07 03:20:49;;;;;;;0.10;0.10;;;1.10;86.60;;;;;;4971334;28;20030;-70
2022/03/07 03:23:15;;;;;;;0.10;0.10;;;1.10;87.30;;;;;;4970139;28;20062;-70
2022/03/07 03:25:40;;;;;;;0.10;0.10;;;1.10;87.90;;;;;;4972328;28;20104;-71
2022/03/07 03:28:06;;;;;;;0.10;0.10;;;1.10;88.20;;;;;;4975151;28;20744;-70
2022/03/07 03:30:32;;;;;;;0.10;0.10;;;1.10;88.60;;;;;;4975146;28;20027;-70
2022/03/07 03:32:59;;;;;;;0.10;0.10;;;1.10;88.40;;;;;;4974505;28;20018;-70
2022/03/07 03:35:25;;;;;;;0.20;0.20;;;1.00;88.00;;;;;;4974316;28;20023;-70
2022/03/07 03:37:51;;;;;;;0.10;0.10;;;1.70;88.40;;;;;;4974706;28;20031;-71
2022/03/07 03:40:17;;;;;;;0.10;0.10;;;1.00;88.30;;;;;;4974683;28;20433;-69
2022/03/07 03:42:43;;;;;;;0.40;0.40;;;1.00;88.40;;;;;;4974737;28;20039;-70
2022/03/07 03:45:10;;;;;;;0.10;0.10;;;1.00;89.30;;;;;;4955576;29;20512;-70
2022/03/07 03:47:40;;;;;;;0.10;0.10;;;1.00;89.40;;;;;;4955368;29;20055;-71
2022/03/07 03:50:09;;;;;;;0.10;0.10;;;1.00;89.50;;;;;;4957769;28;20035;-70
2022/03/07 03:52:35;;;;;;;0.10;0.10;;;0.90;90.00;;;;;;4974556;28;20102;-70
2022/03/07 03:55:02;;;;;;;0.43;0.43;;;0.90;90.20;;;;;;4974244;28;20577;-71
2022/03/07 03:57:28;;;;;;;0.10;0.10;;;0.80;89.20;;;;;;4973443;28;20046;-71
2022/03/07 03:59:54;;;;;;;0.10;0.10;;;0.90;90.30;;;;;;4974435;28;20030;-70
2022/03/07 04:02:20;;;;;;;0.10;0.10;;;0.90;90.00;;;;;;4974594;28;20050;-70
2022/03/07 04:04:45;;;;;;;0.10;0.10;;;0.90;90.10;;;;;;4969451;28;20066;-70
2022/03/07 04:07:11;;;;;;;0.10;0.10;;;0.90;90.20;;;;;;4972575;28;20063;-71
2022/03/07 04:09:36;;;;;;;5.57;5.18;;;0.90;89.50;;;;;;4969566;28;20023;-71
2022/03/07 04:12:03;;;;;;;0.20;0.20;;;0.80;89.50;;;;;;4974139;28;20106;-71
2022/03/07 04:14:28;;;;;;;0.10;0.10;;;0.90;89.50;;;;;;4974347;28;20086;-69
2022/03/07 04:16:54;;;;;;;0.10;0.10;;;0.80;89.60;;;;;;4972853;28;20427;-71
2022/03/07 04:19:20;;;;;;;0.28;0.28;;;0.70;89.50;;;;;;4974485;28;20102;-71
2022/03/07 04:21:46;;;;;;;0.10;0.10;;;0.70;90.20;;;;;;4973990;28;20571;-70
2022/03/07 04:24:12;;;;;;;0.20;0.20;;;0.70;90.20;;;;;;4974170;28;20125;-71
2022/03/07 04:26:41;;;;;;;0.10;0.10;;;0.70;90.40;;;;;;4972573;28;20065;-70
2022/03/07 04:29:08;;;;;;;0.77;0.68;;;0.70;90.50;;;;;;4974314;28;20503;-71
2022/03/07 04:31:35;;;;;;;0.10;0.10;;;0.70;90.60;;;;;;4973685;28;20027;-70
2022/03/07 04:34:02;;;;;;;0.32;0.32;;;0.70;90.70;;;;;;4973914;28;20111;-70
2022/03/07 04:36:27;;;;;;;0.10;0.10;;;0.70;91.00;;;;;;4972140;28;20468;-71
2022/03/07 04:38:53;;;;;;;0.10;0.10;;;0.70;91.30;;;;;;4973609;28;20058;-71
2022/03/07 04:41:19;;;;;;;0.95;0.95;;;0.70;91.20;;;;;;4973638;28;20033;-71
2022/03/07 04:43:45;;;;;;;0.10;0.10;;;0.70;91.70;;;;;;4972862;28;20749;-70
2022/03/07 04:46:11;;;;;;;0.10;0.10;;;0.70;91.30;;;;;;4973521;28;20102;-71
2022/03/07 04:48:37;;;;;;;0.73;0.73;;;0.70;91.70;;;;;;4988626;28;20031;-70
2022/03/07 04:51:03;;;;;;;0.10;0.10;;;0.70;91.60;;;;;;4973605;28;20034;-72
2022/03/07 04:53:28;;;;;;;0.20;0.20;;;0.70;91.80;;;;;;4973070;28;20026;-71
2022/03/07 04:55:55;;;;;;;0.10;0.10;;;0.70;92.10;;;;;;4972667;28;20392;-71
2022/03/07 04:58:20;;;;;;;0.10;0.10;;;0.70;92.30;;;;;;4972993;28;20022;-70
2022/03/07 05:00:46;;;;;;;0.10;0.10;;;0.60;92.30;;;;;;4965261;28;20022;-70
2022/03/07 05:03:12;;;;;;;0.22;0.22;;;0.60;93.20;;;;;;4973099;28;20026;-72
2022/03/07 05:05:37;;;;;;;0.20;0.20;;;0.70;93.20;;;;;;4991472;28;20030;-72
2022/03/07 05:08:04;;;;;;;0.20;0.20;;;0.70;93.80;;;;;;4992901;28;20023;-70
2022/03/07 05:10:29;;;;;;;0.10;0.10;;;0.60;93.60;;;;;;4986042;28;20026;-71
2022/03/07 05:12:55;;;;;;;0.20;0.20;;;0.70;94.20;;;;;;4973141;28;20354;-71
2022/03/07 05:15:21;;;;;;;0.10;0.10;;;0.70;94.60;;;;;;4966014;28;20046;-70
2022/03/07 05:17:50;;;;;;;0.10;0.10;;;0.70;94.50;;;;;;4972333;28;20042;-70
2022/03/07 05:20:17;;;;;;;0.10;0.10;;;0.70;94.70;;;;;;4972412;28;20042;-71
2022/03/07 05:22:44;;;;;;;0.10;0.10;;;0.70;94.90;;;;;;4972859;28;20043;-70
2022/03/07 05:25:11;;;;;;;0.20;0.20;;;0.70;95.20;;;;;;4972849;28;20109;-70
2022/03/07 05:27:38;;;;;;;0.10;0.10;;;0.60;95.50;;;;;;4971718;28;20027;-71
2022/03/07 05:30:06;;;;;;;0.10;0.10;;;0.50;96.30;;;;;;4972999;28;20015;-70
2022/03/07 05:32:32;;;;;;;0.10;0.10;;;0.60;96.70;;;;;;4964866;28;20031;-70
2022/03/07 05:34:58;;;;;;;0.40;0.40;;;0.60;97.20;;;;;;4971358;28;20041;-70
2022/03/07 05:37:24;;;;;;;0.82;0.82;;;0.50;97.90;;;;;;4971650;28;20023;-71
2022/03/07 05:39:50;;;;;;;0.10;0.10;;;0.50;99.00;;;;;;4972429;28;20026;-72
2022/03/07 05:42:15;;;;;;;0.40;0.40;;;0.40;99.90;;;;;;4972476;28;20381;-71
2022/03/07 05:44:41;;;;;;;0.65;0.50;;;0.50;99.90;;;;;;4972167;28;20047;-71
2022/03/07 05:47:07;;;;;;;0.10;0.10;;;0.50;99.90;;;;;;4971973;28;20034;-71
2022/03/07 05:49:33;;;;;;;0.10;0.10;;;0.50;99.90;;;;;;4968676;28;20447;-70
2022/03/07 05:51:58;;;;;;;0.20;0.20;;;0.40;99.90;;;;;;4964874;28;20043;-70
2022/03/07 05:54:24;;;;;;;0.10;0.10;;;0.40;99.90;;;;;;4971574;28;20542;-72
2022/03/07 05:56:49;;;;;;;0.10;0.10;;;0.40;99.90;;;;;;4952301;29;20106;-71
2022/03/07 05:59:15;;;;;;;0.10;0.10;;;0.50;99.90;;;;;;4963491;28;20035;-70
2022/03/07 06:01:41;;;;;;;0.10;0.10;;;0.50;99.90;;;;;;4972148;28;20126;-70
2022/03/07 06:04:08;;;;;;;0.13;0.13;;;0.50;99.90;;;;;;4964255;28;20397;-71
2022/03/07 06:06:34;;;;;;;0.10;0.10;;;0.50;99.90;;;;;;4974083;28;20054;-72
2022/03/07 06:09:00;;;;;;;0.10;0.10;;;0.50;99.90;;;;;;4991785;28;20058;-72
2022/03/07 06:11:26;;;;;;;0.10;0.10;;;0.50;99.90;;;;;;4977615;28;20491;-70
2022/03/07 06:13:52;;;;;;;0.32;0.32;;;0.50;99.90;;;;;;4971986;28;20069;-71
2022/03/07 06:16:18;;;;;;;0.10;0.10;;;0.50;99.90;;;;;;4971005;28;20034;-71
2022/03/07 06:18:43;;;;;;;0.45;0.45;;;0.50;99.90;;;;;;4971955;28;20433;-70
2022/03/07 06:21:09;;;;;;;0.40;0.40;;;0.50;99.90;;;;;;4971327;28;20027;-71
2022/03/07 06:23:36;;;;;;;0.35;0.35;;;0.50;99.90;;;;;;4970809;28;20243;-72
2022/03/07 06:26:05;;;;;;;0.20;0.20;;;0.40;99.90;;;;;;4967754;28;20030;-71
2022/03/07 06:28:31;;;;;;;0.10;0.10;;;0.40;99.90;;;;;;4971709;28;20015;-71
2022/03/07 06:30:57;;;;;;;0.10;0.10;;;0.50;99.90;;;;;;4971812;28;20023;-71
2022/03/07 06:33:22;;;;;;;0.10;0.10;;;0.40;99.90;;;;;;4966233;28;20057;-70
2022/03/07 06:35:48;;;;;;;0.50;0.50;;;0.40;99.90;;;;;;4969643;28;20154;-70
2022/03/07 06:38:14;;;;;;;1.17;0.68;;;0.40;99.90;;;;;;4971694;28;20023;-71
2022/03/07 06:40:40;;;;;;;0.20;0.20;;;0.40;99.90;;;;;;4959429;28;20042;-71
2022/03/07 06:43:06;;;;;;;0.10;0.10;;;0.40;99.90;;;;;;4962825;28;20074;-69
2022/03/07 06:45:32;;;;;;;0.20;0.20;;;0.50;99.90;;;;;;4964757;28;20039;-69
2022/03/07 06:47:59;;;;;;;0.20;0.20;;;1.20;99.90;;;;;;4967870;28;20045;-71
2022/03/07 06:50:25;;;;;;;0.10;0.10;;;0.40;99.90;;;;;;4958949;28;20027;-70
2022/03/07 06:52:51;;;;;;;0.40;0.40;;;0.40;99.90;;;;;;4956590;28;20027;-70
2022/03/07 06:55:17;;;;;;;0.10;0.10;;;0.40;99.90;;;;;;4969828;28;20059;-71
2022/03/07 06:57:43;;;;;;;0.90;0.90;;;0.50;99.90;;;;;;4967667;28;20492;-71
2022/03/07 07:00:11;;;;;;;0.10;0.10;;;0.50;99.90;;;;;;4967869;28;20109;-70
2022/03/07 07:02:38;;;;;;;0.10;0.10;;;0.50;99.90;;;;;;4963714;28;20030;-71
2022/03/07 07:05:04;;;;;;;0.15;0.15;;;0.50;99.90;;;;;;4965706;28;20084;-71
2022/03/07 07:07:31;;;;;;;0.10;0.10;;;0.40;99.90;;;;;;4961667;28;20396;-71
2022/03/07 07:09:56;;;;;;;0.20;0.20;;;0.40;99.90;;;;;;4955278;28;20035;-73
2022/03/07 07:12:22;;;;;;;0.10;0.10;;;0.50;99.90;;;;;;4971942;28;20499;-72
2022/03/07 07:14:48;;;;;;;0.10;0.10;;;0.60;99.90;;;;;;4965242;28;20457;-70
2022/03/07 07:17:14;;;;;;;0.10;0.10;;;0.60;99.90;;;;;;4968578;28;20582;-70
2022/03/07 07:19:40;;;;;;;3.50;1.88;;;0.50;99.90;;;;;;4980020;28;20039;-72
2022/03/07 07:22:06;;;;;;;0.20;0.20;;;0.50;99.90;;;;;;4976304;23;20113;-70
2022/03/07 07:24:31;;;;;;;1.45;1.35;;;0.50;99.90;;;;;;4953188;28;20138;-69
2022/03/07 07:26:57;;;;;;;0.10;0.10;;;0.50;99.90;;;;;;4947750;28;20426;-70
2022/03/07 07:29:23;;;;;;;0.10;0.10;;;0.50;99.90;;;;;;4948859;28;20397;-70
2022/03/07 07:31:48;;;;;;;0.10;0.10;;;0.60;99.90;;;;;;4948452;29;20421;-68
2022/03/07 07:34:14;;;;;;;1.70;1.63;;;0.60;99.90;;;;;;4957746;28;20616;-70
2022/03/07 07:36:41;;;;;;;0.35;0.32;;;0.60;99.90;;;;;;4972844;28;20035;-68
2022/03/07 07:39:06;;;;;;;0.10;0.10;;;0.60;99.90;;;;;;4948644;28;20039;-70
2022/03/07 07:41:32;;;;;;;0.20;0.20;;;0.70;99.90;;;;;;4949213;29;20149;-69
2022/03/07 07:43:57;;;;;;;0.10;0.10;;;0.70;99.90;;;;;;4947526;28;20392;-70
2022/03/07 07:46:23;;;;;;;0.65;0.65;;;0.70;99.90;;;;;;4939194;29;20102;-70
2022/03/07 07:48:49;;;;;;;0.17;0.17;;;0.80;99.90;;;;;;4981962;28;20035;-70
2022/03/07 07:51:14;;;;;;;0.13;0.13;;;0.90;99.90;;;;;;4991659;28;20039;-69
2022/03/07 07:53:40;;;;;;;0.10;0.10;;;0.90;99.90;;;;;;4996259;28;20033;-69
2022/03/07 07:56:06;;;;;;;0.20;0.20;;;1.00;99.90;;;;;;4982570;28;20481;-71
2022/03/07 07:58:31;;;;;;;0.20;0.20;;;1.10;99.90;;;;;;5024772;28;20104;-70
2022/03/07 08:00:57;;;;;;;0.10;0.10;;;1.10;99.90;;;;;;5030540;28;20502;-69
2022/03/07 08:03:23;;;;;;;0.20;0.20;;;1.10;99.90;;;;;;4973307;28;20035;-69
2022/03/07 08:05:48;;;;;;;0.10;0.10;;;1.20;99.90;;;;;;4963776;28;20058;-69
2022/03/07 08:08:15;;;;;;;0.10;0.10;;;1.20;99.90;;;;;;4947374;28;20055;-69
2022/03/07 08:10:41;;;;;;;0.10;0.10;;;1.30;99.90;;;;;;4980770;28;20100;-73
2022/03/07 08:13:06;;;;;;;0.20;0.20;;;1.40;99.90;;;;;;4967020;28;20121;-70
2022/03/07 08:15:32;;;;;;;0.10;0.10;;;1.20;99.90;;;;;;4956890;28;20093;-69
2022/03/07 08:17:58;;;;;;;0.10;0.10;;;1.40;99.90;;;;;;4989960;28;20571;-68
2022/03/07 08:20:24;;;;;;;0.10;0.10;;;1.40;99.90;;;;;;4967663;28;20114;-71
2022/03/07 08:22:50;;;;;;;0.10;0.10;;;1.50;99.90;;;;;;4959919;28;20512;-70
2022/03/07 08:25:16;;;;;;;2.05;1.65;;;1.60;99.90;;;;;;4966719;28;20391;-72
2022/03/07 08:27:42;;;;;;;0.10;0.10;;;1.70;99.90;;;;;;4959839;28;20123;-69
2022/03/07 08:30:11;;;;;;;0.30;0.30;;;1.70;99.90;;;;;;5033544;28;20042;-69
2022/03/07 08:32:40;;;;;;;0.10;0.10;;;1.80;99.90;;;;;;4965252;28;20024;-71
2022/03/07 08:35:07;;;;;;;0.20;0.20;;;2.00;98.90;;;;;;4953887;28;20473;-70
2022/03/07 08:37:33;;;;;;;0.10;0.10;;;2.20;98.00;;;;;;4950277;28;20631;-71
2022/03/07 08:40:00;;;;;;;0.10;0.10;;;2.40;97.40;;;;;;4962703;28;20034;-73
2022/03/07 08:42:26;;;;;;;0.10;0.10;;;2.40;94.80;;;;;;4965567;28;20032;-71
2022/03/07 08:44:52;;;;;;;0.10;0.10;;;2.30;93.80;;;;;;4934033;29;20036;-69
2022/03/07 08:47:19;;;;;;;0.20;0.20;;;2.40;94.00;;;;;;4978837;28;20547;-69
2022/03/07 08:49:44;;;;;;;0.10;0.10;;;2.50;93.50;;;;;;5045655;28;20494;-72
2022/03/07 08:52:10;;;;;;;0.10;0.10;;;2.60;92.80;;;;;;5033198;28;20031;-70
2022/03/07 08:54:36;;;;;;;0.10;0.10;;;2.60;92.10;;;;;;4950967;28;20188;-70
2022/03/07 08:57:03;;;;;;;0.10;0.10;;;2.60;90.80;;;;;;4950502;28;20027;-71
2022/03/07 08:59:28;;;;;;;0.10;0.10;;;2.60;90.90;;;;;;4951314;28;20611;-71
2022/03/07 09:01:57;;;;;;;0.10;0.10;;;2.60;90.70;;;;;;4949623;28;20066;-71
2022/03/07 09:04:24;;;;;;;0.10;0.10;;;2.60;90.10;;;;;;4952424;28;20024;-69
2022/03/07 09:06:53;;;;;;;0.10;0.10;;;2.60;90.10;;;;;;4954893;28;20035;-72
2022/03/07 09:09:19;;;;;;;0.10;0.10;;;2.60;89.20;;;;;;4953288;28;20507;-73
2022/03/07 09:11:45;;;;;;;0.10;0.10;;;2.70;90.00;;;;;;4950334;28;20029;-70
2022/03/07 09:14:11;;;;;;;0.10;0.10;;;2.80;89.70;;;;;;4950188;28;20374;-71
2022/03/07 09:16:37;;;;;;;0.10;0.10;;;2.90;88.10;;;;;;4976427;28;20100;-71
2022/03/07 09:19:03;;;;;;;0.10;0.10;;;3.00;86.70;;;;;;4950410;28;20028;-70
2022/03/07 09:21:28;;;;;;;0.20;0.20;;;3.20;86.40;;;;;;4950974;28;20577;-71
2022/03/07 09:23:54;;;;;;;0.10;0.10;;;3.40;83.90;;;;;;4952733;28;20114;-72
2022/03/07 09:26:20;;;;;;;0.10;0.10;;;3.30;84.60;;;;;;4951240;28;20481;-69
2022/03/07 09:28:46;;;;;;;0.10;0.10;;;3.20;84.30;;;;;;4947655;28;20028;-71
2022/03/07 09:31:11;;;;;;;0.10;0.10;;;3.20;84.70;;;;;;4935790;28;20021;-72
2022/03/07 09:33:38;;;;;;;1.00;0.93;;;3.20;83.20;;;;;;4948395;28;20038;-72
2022/03/07 09:36:04;;;;;;;0.15;0.15;;;3.10;82.60;;;;;;4944720;29;20069;-74
2022/03/07 09:38:31;;;;;;;0.10;0.10;;;3.20;81.10;;;;;;4946121;28;20130;-73
2022/03/07 09:40:57;;;;;;;0.10;0.10;;;3.10;80.30;;;;;;4939648;28;20104;-71
2022/03/07 09:43:23;;;;;;;0.10;0.10;;;3.00;81.00;;;;;;4950751;28;20073;-70
2022/03/07 09:45:49;;;;;;;1.80;1.70;;;3.10;81.60;;;;;;4945115;29;20366;-72
2022/03/07 09:48:16;;;;;;;1.60;1.52;;;3.30;81.20;;;;;;4931583;29;20063;-73
2022/03/07 09:50:43;;;;;;;0.10;0.10;;;3.60;78.90;;;;;;4931586;28;20039;-71
2022/03/07 09:53:09;;;;;;;0.10;0.10;;;3.70;77.10;;;;;;4931448;29;20106;-72
2022/03/07 09:55:36;;;;;;;0.10;0.10;;;3.70;75.60;;;;;;4929563;28;20032;-73
2022/03/07 09:58:03;;;;;;;0.10;0.10;;;3.50;75.80;;;;;;4947227;29;20027;-70
2022/03/07 10:00:29;;;;;;;1.05;1.05;;;3.30;76.60;;;;;;4950271;28;20469;-70
2022/03/07 10:02:59;;;;;;;0.10;0.10;;;3.50;77.90;;;;;;4949729;28;20092;-70
2022/03/07 10:05:27;;;;;;;0.10;0.10;;;3.80;76.30;;;;;;4931975;28;20047;-71
2022/03/07 10:07:53;;;;;;;0.10;0.10;;;4.10;75.70;;;;;;4936770;28;20114;-71
2022/03/07 10:10:20;;;;;;;0.10;0.10;;;4.40;73.80;;;;;;4932736;29;20560;-69
2022/03/07 10:12:48;;;;;;;1.38;1.27;;;4.50;73.40;;;;;;4950303;28;20056;-71
2022/03/07 10:15:18;;;;;;;0.95;0.95;;;4.60;72.90;;;;;;4947667;28;20107;-70
2022/03/07 10:17:53;;;;;;;0.10;0.10;;;4.90;71.40;;;;;;4950074;28;20023;-71
2022/03/07 10:20:21;;;;;;;0.10;0.10;;;5.00;71.00;;;;;;4949506;28;20023;-71
2022/03/07 10:22:53;;;;;;;0.20;0.20;;;5.10;70.00;;;;;;4948886;28;20130;-69
2022/03/07 10:25:30;;;;;;;0.10;0.10;;;5.00;69.70;;;;;;4948140;28;20054;-70
2022/03/07 10:28:00;;;;;;;0.10;0.10;;;4.90;69.10;;;;;;4947967;28;20281;-71
2022/03/07 10:30:28;;;;;;;0.38;0.38;;;4.90;68.40;;;;;;4947456;28;20071;-71
2022/03/07 10:33:03;;;;;;;0.30;0.30;;;4.80;67.80;;;;;;4947378;28;20106;-72
2022/03/07 10:35:31;;;;;;;0.10;0.10;;;4.80;69.10;;;;;;4946835;28;20055;-70
2022/03/07 10:38:02;;;;;;;0.10;0.10;;;5.00;68.10;;;;;;4948475;28;20031;-71
2022/03/07 10:40:29;;;;;;;0.43;0.43;;;4.90;68.50;;;;;;4948525;28;20019;-70
2022/03/07 10:42:56;;;;;;;0.10;0.10;;;5.30;67.70;;;;;;4944595;28;20058;-71
2022/03/07 10:45:22;;;;;;;0.47;0.47;;;5.30;66.40;;;;;;4948286;28;20715;-69
2022/03/07 10:47:53;;;;;;;0.10;0.10;;;5.60;67.20;;;;;;4946597;28;20492;-71
2022/03/07 10:50:23;;;;;;;0.10;0.10;;;5.70;64.70;;;;;;4945545;28;20023;-70
2022/03/07 10:52:51;;;;;;;0.10;0.10;;;5.60;65.20;;;;;;4953645;28;20035;-71
2022/03/07 10:55:24;;;;;;;2.85;2.72;;;5.30;65.20;;;;;;4955404;28;20034;-71
2022/03/07 10:57:50;;;;;;;0.10;0.10;;;5.40;64.80;;;;;;4958578;28;20046;-74
2022/03/07 11:00:17;;;;;;;0.10;0.10;;;5.40;64.30;;;;;;4958969;28;20488;-71
2022/03/07 11:02:47;;;;;;;0.10;0.10;;;5.80;63.50;;;;;;4955564;28;20023;-71
2022/03/07 11:05:14;;;;;;;0.10;0.10;;;5.90;63.10;;;;;;4953228;28;20046;-73
2022/03/07 11:07:42;;;;;;;0.10;0.10;;;5.80;62.20;;;;;;4956272;28;20023;-72
2022/03/07 11:10:09;;;;;;;0.20;0.20;;;5.70;61.40;;;;;;4958596;28;20502;-71
2022/03/07 11:12:36;;;;;;;0.10;0.10;;;5.80;61.80;;;;;;4960611;28;20042;-73
2022/03/07 11:15:08;;;;;;;0.10;0.10;;;6.00;60.80;;;;;;4957753;28;20481;-72
2022/03/07 11:17:41;;;;;;;0.10;0.10;;;6.00;60.40;;;;;;4958060;28;20055;-71
2022/03/07 11:20:12;;;;;;;0.20;0.20;;;6.10;60.20;;;;;;4960318;28;20130;-72
2022/03/07 11:22:37;;;;;;;0.47;0.47;;;5.90;60.80;;;;;;4953111;28;20046;-71
2022/03/07 11:25:05;;;;;;;0.10;0.10;;;6.10;60.90;;;;;;4957557;28;20022;-74
2022/03/07 11:27:31;;;;;;;1.30;1.23;;;6.00;59.60;;;;;;4953475;28;20047;-74
2022/03/07 11:29:57;;;;;;;0.28;0.28;;;5.70;58.80;;;;;;4960750;28;20033;-74
2022/03/07 11:32:23;;;;;;;0.10;0.10;;;5.40;59.90;;;;;;4948978;28;20110;-71
2022/03/07 11:34:57;;;;;;;0.38;0.38;;;5.30;59.80;;;;;;4948274;29;20050;-72
2022/03/07 11:37:28;;;;;;;0.10;0.10;;;5.30;60.30;;;;;;4948477;29;20065;-73
2022/03/07 11:39:56;;;;;;;0.20;0.20;;;5.30;59.40;;;;;;4947452;29;20027;-73
2022/03/07 11:42:22;;;;;;;0.20;0.20;;;5.20;59.40;;;;;;4948802;28;20064;-73
2022/03/07 11:44:48;;;;;;;0.10;0.10;;;5.20;59.50;;;;;;4936816;28;20023;-74
2022/03/07 11:47:18;;;;;;;0.10;0.10;;;4.70;59.70;;;;;;4931704;29;20443;-72
2022/03/07 11:49:46;;;;;;;0.10;0.10;;;5.20;59.80;;;;;;4941132;29;20019;-74
2022/03/07 11:52:17;;;;;;;0.50;0.50;;;5.00;60.20;;;;;;4951717;28;20023;-72
2022/03/07 11:54:57;;;;;;;0.10;0.10;;;5.10;59.50;;;;;;4941069;28;20061;-72
2022/03/07 11:57:39;;;;;;;0.80;0.75;;;5.20;59.50;;;;;;4932518;29;20485;-72
2022/03/07 12:00:24;;;;;;;0.10;0.10;;;5.50;59.00;;;;;;4937452;28;20031;-73
2022/03/07 12:02:52;;;;;;;0.20;0.20;;;5.70;58.50;;;;;;4951590;28;20023;-72
2022/03/07 12:05:33;;;;;;;0.10;0.10;;;5.70;58.20;;;;;;4983268;28;20064;-72
2022/03/07 12:08:16;;;;;;;0.10;0.10;;;5.70;58.20;;;;;;4951594;28;20486;-71
2022/03/07 12:10:54;;;;;;;0.10;0.10;;;5.70;57.40;;;;;;4990973;28;20032;-72
2022/03/07 12:13:20;;;;;;;0.75;0.75;;;5.80;57.40;;;;;;4943952;28;20043;-72
2022/03/07 12:15:50;;;;;;;0.10;0.10;;;5.90;57.60;;;;;;4949068;28;20039;-72
2022/03/07 12:18:17;;;;;;;0.30;0.30;;;5.80;57.70;;;;;;4951674;28;20182;-71
2022/03/07 12:20:58;;;;;;;0.10;0.10;;;5.70;56.80;;;;;;4948525;28;20027;-71
2022/03/07 12:23:26;;;;;;;0.10;0.10;;;5.60;56.70;;;;;;4950066;28;20497;-70
2022/03/07 12:26:02;;;;;;;0.17;0.17;;;5.40;57.60;;;;;;4950345;28;20511;-71
2022/03/07 12:28:32;;;;;;;0.13;0.13;;;5.40;57.10;;;;;;4950624;28;20023;-71
2022/03/07 12:30:59;;;;;;;0.40;0.40;;;5.50;56.80;;;;;;4950111;28;20019;-72
2022/03/07 12:33:25;;;;;;;0.10;0.10;;;5.50;56.60;;;;;;4950779;28;20098;-70
2022/03/07 12:36:03;;;;;;;0.35;0.35;;;5.50;56.70;;;;;;4949935;29;20110;-71
2022/03/07 12:38:30;;;;;;;2.17;2.08;;;5.40;56.50;;;;;;4950804;28;20031;-75
2022/03/07 12:40:59;;;;;;;0.10;0.10;;;5.50;56.60;;;;;;4949951;28;20546;-70
2022/03/07 12:43:26;;;;;;;0.10;0.10;;;5.60;56.40;;;;;;4950026;28;20028;-71
2022/03/07 12:45:56;;;;;;;0.40;0.40;;;5.50;56.20;;;;;;4947993;28;20374;-73
2022/03/07 12:48:36;;;;;;;0.10;0.10;;;5.50;56.20;;;;;;4953215;28;20146;-72
2022/03/07 12:51:07;;;;;;;0.88;0.88;;;5.50;55.50;;;;;;4948791;28;20742;-71
2022/03/07 12:53:35;;;;;;;0.10;0.10;;;5.10;55.20;;;;;;4947826;28;20084;-71
2022/03/07 12:56:03;;;;;;;0.10;0.10;;;5.20;55.70;;;;;;4949367;28;20022;-70